EST,Max TemperatureF,Mean TemperatureF,Min TemperatureF,Max Dew PointF,MeanDew PointF,Min DewpointF,Max Humidity, Mean Humidity, Min Humidity, Max Sea Level PressureIn, Mean Sea Level PressureIn, Min Sea Level PressureIn, Max VisibilityMiles, Mean VisibilityMiles, Min VisibilityMiles, Max Wind SpeedMPH, Mean Wind SpeedMPH, Max Gust SpeedMPH,PrecipitationIn, CloudCover, Events, WindDirDegrees
2011-12-1,50,37,24,31,27,22,100,73,46,30.40,30.33,30.26,10,10,7,7,1,10,0.00,0,,150
2011-12-2,52,39,26,34,30,25,92,70,48,30.53,30.43,30.32,10,10,8,8,2,10,0.00,1,,154
2011-12-3,59,44,28,35,31,27,100,67,33,30.50,30.43,30.33,10,9,6,6,2,9,0.00,0,,120
2011-12-4,66,53,39,39,31,24,60,44,28,30.31,30.25,30.19,10,10,10,17,5,21,0.00,0,,169
2011-12-5,62,58,53,52,47,41,93,72,51,30.19,30.09,30.00,10,9,5,9,4,13,0.17,5,Rain,108
2011-12-6,54,48,41,54,46,39,100,96,92,30.11,30.02,29.98,10,3,0,13,4,16,0.65,8,Fog-Rain,331
2011-12-7,41,36,30,40,35,24,100,85,69,30.17,29.96,29.86,10,8,2,15,6,24,0.58,8,Rain-Snow,320
2011-12-8,42,34,26,27,25,23,92,72,51,30.35,30.28,30.19,10,10,10,9,4,13,0.00,0,,209
2011-12-9,47,36,24,30,25,21,92,66,40,30.36,30.28,30.24,10,10,6,10,4,14,0.00,1,,247
2011-12-10,38,31,24,30,20,12,82,60,37,30.56,30.47,30.35,10,10,10,12,4,17,0.00,3,,326
2011-12-11,43,30,17,21,18,16,92,64,36,30.63,30.55,30.47,10,10,7,7,1,9,0.00,0,,30
2011-12-12,51,35,19,28,23,17,92,63,33,30.51,30.47,30.44,10,10,10,6,1,8,0.00,2,,97
2011-12-13,52,44,36,38,33,28,82,66,50,30.51,30.44,30.38,10,10,10,6,1,8,T,8,Rain,84
2011-12-14,63,54,44,49,44,36,100,79,57,30.38,30.25,30.08,10,10,7,13,3,18,0.04,4,Rain,170
2011-12-15,63,56,48,55,49,39,80,69,57,30.15,30.00,29.91,10,10,10,20,11,30,0.07,5,Rain,226
2011-12-16,48,42,35,35,28,26,75,70,64,30.34,30.27,30.18,10,10,10,14,4,22,0.00,6,,343
2011-12-17,40,36,32,28,23,20,75,62,48,30.34,30.29,30.24,10,10,10,12,4,16,0.00,7,,261
2011-12-18,46,39,32,29,27,25,82,68,53,30.37,30.29,30.24,10,10,8,12,6,17,0.00,4,,221
2011-12-19,52,43,34,39,29,26,75,57,38,30.22,30.17,30.11,10,10,10,13,6,18,0.01,5,Rain,206
2011-12-20,56,47,37,46,40,36,100,81,61,30.16,30.07,29.94,10,9,2,7,2,9,T,4,,117
2011-12-21,65,56,46,57,48,41,93,72,51,30.01,29.84,29.73,10,9,2,21,8,31,0.12,4,Rain,207
2011-12-22,49,42,35,45,42,35,100,90,80,30.12,30.02,29.92,10,6,2,12,4,17,0.53,4,Rain,348
2011-12-23,45,41,37,42,37,35,93,85,76,30.33,30.22,30.05,10,10,4,12,4,16,T,8,Rain,310
2011-12-24,43,37,31,35,30,28,92,75,57,30.48,30.40,30.34,10,10,5,10,3,14,0.00,3,,221
2011-12-25,51,41,30,32,27,23,92,63,33,30.36,30.26,30.13,10,10,10,16,8,26,0.00,0,,228
2011-12-26,46,39,31,30,27,25,82,66,49,30.42,30.27,29.94,10,10,10,10,2,14,0.00,2,,194
2011-12-27,46,41,36,43,36,29,100,82,64,29.92,29.67,29.45,10,7,2,24,8,35,1.15,7,Rain,210
2011-12-28,42,35,28,34,28,24,85,68,51,30.07,29.99,29.82,10,10,10,18,7,29,T,6,Rain,261
2011-12-29,51,39,26,32,28,25,100,71,42,30.03,29.93,29.81,10,10,10,15,8,21,T,4,,196
2011-12-30,60,52,44,43,37,29,61,54,46,29.93,29.84,29.70,10,10,10,22,10,33,0.01,4,Rain,197
2011-12-31,51,44,36,41,37,34,92,74,56,30.11,30.00,29.78,10,10,10,18,6,26,T,6,Rain,239